Terminal Aerodrome Forecast
Issued by NWS Albany, NY

Home | Current Version | Previous Version | Text Only | Print | Product List | Glossary On
Versions: 1 2 3 4 5 6 7 8 9 10 11 12 13 14 15 16 17 18 19 20 21 22
000
FTUS41 KALY 242300 RRA
TAFALB
TAF
KALB 242349Z 2500/2524 30008KT P6SM FEW060
     FM250300 31005KT P6SM SKC
     FM251300 30006KT P6SM FEW035
     FM251600 28008KT P6SM SCT040 SCT250=

USA.gov is the U.S. government's official web portal to all federal, state and local government web resources and services.